sensor_id;sensor_type;location;lat;lon;timestamp;P1;P2;P0
73565;PMS5003;61846;52.970;-3.168;2024-03-02T00:00:30;19;18;
73565;PMS5003;61846;52.970;-3.168;2024-03-02T00:02:56;16;16;
73565;PMS5003;61846;52.970;-3.168;2024-03-02T00:05:22;22;16;
73565;PMS5003;61846;52.970;-3.168;2024-03-02T00:07:47;16;13;
73565;PMS5003;61846;52.970;-3.168;2024-03-02T00:10:14;15;11;
73565;PMS5003;61846;52.970;-3.168;2024-03-02T00:12:38;20;14;
73565;PMS5003;61846;52.970;-3.168;2024-03-02T00:15:04;15;13;
73565;PMS5003;61846;52.970;-3.168;2024-03-02T00:17:28;22;17;
73565;PMS5003;61846;52.970;-3.168;2024-03-02T00:19:53;16;16;
73565;PMS5003;61846;52.970;-3.168;2024-03-02T00:22:19;21;16;
73565;PMS5003;61846;52.970;-3.168;2024-03-02T00:24:43;13;13;
73565;PMS5003;61846;52.970;-3.168;2024-03-02T00:27:09;25;19;
73565;PMS5003;61846;52.970;-3.168;2024-03-02T00:29:35;20;18;
73565;PMS5003;61846;52.970;-3.168;2024-03-02T00:32:01;17;15;
73565;PMS5003;61846;52.970;-3.168;2024-03-02T00:34:26;16;16;
73565;PMS5003;61846;52.970;-3.168;2024-03-02T00:36:51;14;14;
73565;PMS5003;61846;52.970;-3.168;2024-03-02T00:39:16;22;19;
73565;PMS5003;61846;52.970;-3.168;2024-03-02T00:41:41;19;18;
73565;PMS5003;61846;52.970;-3.168;2024-03-02T00:44:07;16;16;
73565;PMS5003;61846;52.970;-3.168;2024-03-02T00:46:33;18;17;
73565;PMS5003;61846;52.970;-3.168;2024-03-02T00:48:58;17;16;
73565;PMS5003;61846;52.970;-3.168;2024-03-02T00:51:23;17;17;
73565;PMS5003;61846;52.970;-3.168;2024-03-02T00:53:50;23;17;
73565;PMS5003;61846;52.970;-3.168;2024-03-02T00:56:14;20;19;
73565;PMS5003;61846;52.970;-3.168;2024-03-02T00:58:39;26;19;
73565;PMS5003;61846;52.970;-3.168;2024-03-02T01:01:05;16;15;
73565;PMS5003;61846;52.970;-3.168;2024-03-02T01:03:31;16;16;
73565;PMS5003;61846;52.970;-3.168;2024-03-02T01:05:58;23;17;
73565;PMS5003;61846;52.970;-3.168;2024-03-02T01:08:22;18;17;
73565;PMS5003;61846;52.970;-3.168;2024-03-02T01:10:47;23;18;
73565;PMS5003;61846;52.970;-3.168;2024-03-02T01:13:12;18;17;
73565;PMS5003;61846;52.970;-3.168;2024-03-02T01:15:38;16;16;
73565;PMS5003;61846;52.970;-3.168;2024-03-02T01:18:03;18;18;
73565;PMS5003;61846;52.970;-3.168;2024-03-02T01:20:29;14;14;
73565;PMS5003;61846;52.970;-3.168;2024-03-02T01:22:54;25;15;
73565;PMS5003;61846;52.970;-3.168;2024-03-02T01:25:19;17;16;
73565;PMS5003;61846;52.970;-3.168;2024-03-02T01:27:45;13;13;
73565;PMS5003;61846;52.970;-3.168;2024-03-02T01:30:11;23;18;
73565;PMS5003;61846;52.970;-3.168;2024-03-02T01:32:37;24;17;
73565;PMS5003;61846;52.970;-3.168;2024-03-02T01:35:01;19;17;
73565;PMS5003;61846;52.970;-3.168;2024-03-02T01:37:26;20;19;
73565;PMS5003;61846;52.970;-3.168;2024-03-02T01:39:52;15;15;
73565;PMS5003;61846;52.970;-3.168;2024-03-02T01:42:17;18;17;
73565;PMS5003;61846;52.970;-3.168;2024-03-02T01:44:43;25;20;
73565;PMS5003;61846;52.970;-3.168;2024-03-02T01:47:08;21;21;
73565;PMS5003;61846;52.970;-3.168;2024-03-02T01:49:33;17;17;
73565;PMS5003;61846;52.970;-3.168;2024-03-02T01:51:59;19;17;
73565;PMS5003;61846;52.970;-3.168;2024-03-02T01:54:24;16;15;
73565;PMS5003;61846;52.970;-3.168;2024-03-02T01:56:50;15;15;
73565;PMS5003;61846;52.970;-3.168;2024-03-02T01:59:15;17;15;
73565;PMS5003;61846;52.970;-3.168;2024-03-02T02:01:40;18;16;
73565;PMS5003;61846;52.970;-3.168;2024-03-02T02:04:06;18;18;
73565;PMS5003;61846;52.970;-3.168;2024-03-02T02:06:31;16;14;
73565;PMS5003;61846;52.970;-3.168;2024-03-02T02:08:56;17;16;
73565;PMS5003;61846;52.970;-3.168;2024-03-02T02:11:22;19;16;
73565;PMS5003;61846;52.970;-3.168;2024-03-02T02:13:47;19;19;
73565;PMS5003;61846;52.970;-3.168;2024-03-02T02:16:13;17;17;
73565;PMS5003;61846;52.970;-3.168;2024-03-02T02:18:38;20;17;
73565;PMS5003;61846;52.970;-3.168;2024-03-02T02:21:03;21;16;
73565;PMS5003;61846;52.970;-3.168;2024-03-02T02:23:29;16;13;
73565;PMS5003;61846;52.970;-3.168;2024-03-02T02:25:54;14;14;
73565;PMS5003;61846;52.970;-3.168;2024-03-02T02:28:20;14;14;
73565;PMS5003;61846;52.970;-3.168;2024-03-02T02:30:45;21;16;
73565;PMS5003;61846;52.970;-3.168;2024-03-02T02:33:11;15;13;
73565;PMS5003;61846;52.970;-3.168;2024-03-02T02:35:36;15;14;
73565;PMS5003;61846;52.970;-3.168;2024-03-02T02:38:01;16;14;
73565;PMS5003;61846;52.970;-3.168;2024-03-02T02:40:26;24;17;
73565;PMS5003;61846;52.970;-3.168;2024-03-02T02:42:52;17;14;
73565;PMS5003;61846;52.970;-3.168;2024-03-02T02:45:17;21;17;
73565;PMS5003;61846;52.970;-3.168;2024-03-02T02:47:44;12;11;
73565;PMS5003;61846;52.970;-3.168;2024-03-02T02:50:08;15;15;
73565;PMS5003;61846;52.970;-3.168;2024-03-02T02:52:34;17;15;
73565;PMS5003;61846;52.970;-3.168;2024-03-02T02:54:59;16;16;
73565;PMS5003;61846;52.970;-3.168;2024-03-02T02:57:24;15;13;
73565;PMS5003;61846;52.970;-3.168;2024-03-02T02:59:49;13;13;
73565;PMS5003;61846;52.970;-3.168;2024-03-02T03:02:14;16;16;
73565;PMS5003;61846;52.970;-3.168;2024-03-02T03:04:40;16;15;
73565;PMS5003;61846;52.970;-3.168;2024-03-02T03:07:05;27;19;
73565;PMS5003;61846;52.970;-3.168;2024-03-02T03:09:31;23;19;
73565;PMS5003;61846;52.970;-3.168;2024-03-02T03:11:56;24;17;
73565;PMS5003;61846;52.970;-3.168;2024-03-02T03:14:21;17;16;
73565;PMS5003;61846;52.970;-3.168;2024-03-02T03:16:46;22;18;
73565;PMS5003;61846;52.970;-3.168;2024-03-02T03:19:11;19;15;
73565;PMS5003;61846;52.970;-3.168;2024-03-02T03:21:39;25;20;
73565;PMS5003;61846;52.970;-3.168;2024-03-02T03:24:02;18;15;
73565;PMS5003;61846;52.970;-3.168;2024-03-02T03:26:28;20;19;
73565;PMS5003;61846;52.970;-3.168;2024-03-02T03:28:53;21;17;
73565;PMS5003;61846;52.970;-3.168;2024-03-02T03:31:19;20;18;
73565;PMS5003;61846;52.970;-3.168;2024-03-02T03:33:44;17;15;
73565;PMS5003;61846;52.970;-3.168;2024-03-02T03:36:09;23;15;
73565;PMS5003;61846;52.970;-3.168;2024-03-02T03:38:35;20;17;
73565;PMS5003;61846;52.970;-3.168;2024-03-02T03:41:01;19;19;
73565;PMS5003;61846;52.970;-3.168;2024-03-02T03:43:26;20;16;
73565;PMS5003;61846;52.970;-3.168;2024-03-02T03:45:51;22;16;
73565;PMS5003;61846;52.970;-3.168;2024-03-02T03:48:17;13;13;
73565;PMS5003;61846;52.970;-3.168;2024-03-02T03:50:42;19;18;
73565;PMS5003;61846;52.970;-3.168;2024-03-02T03:53:07;21;17;
73565;PMS5003;61846;52.970;-3.168;2024-03-02T03:55:33;12;12;
73565;PMS5003;61846;52.970;-3.168;2024-03-02T03:57:59;14;14;
73565;PMS5003;61846;52.970;-3.168;2024-03-02T04:00:24;17;17;
73565;PMS5003;61846;52.970;-3.168;2024-03-02T04:02:50;21;15;
73565;PMS5003;61846;52.970;-3.168;2024-03-02T04:05:15;21;18;
73565;PMS5003;61846;52.970;-3.168;2024-03-02T04:07:40;22;15;
73565;PMS5003;61846;52.970;-3.168;2024-03-02T04:10:07;25;19;
73565;PMS5003;61846;52.970;-3.168;2024-03-02T04:12:32;27;20;
73565;PMS5003;61846;52.970;-3.168;2024-03-02T04:14:57;30;23;
73565;PMS5003;61846;52.970;-3.168;2024-03-02T04:17:23;23;15;
73565;PMS5003;61846;52.970;-3.168;2024-03-02T04:19:48;23;16;
73565;PMS5003;61846;52.970;-3.168;2024-03-02T04:22:14;17;17;
73565;PMS5003;61846;52.970;-3.168;2024-03-02T04:24:39;35;23;
73565;PMS5003;61846;52.970;-3.168;2024-03-02T04:27:07;21;21;
73565;PMS5003;61846;52.970;-3.168;2024-03-02T04:29:30;23;22;
73565;PMS5003;61846;52.970;-3.168;2024-03-02T04:31:55;26;22;
73565;PMS5003;61846;52.970;-3.168;2024-03-02T04:34:21;21;19;
73565;PMS5003;61846;52.970;-3.168;2024-03-02T04:36:46;20;20;
73565;PMS5003;61846;52.970;-3.168;2024-03-02T04:39:12;30;22;
73565;PMS5003;61846;52.970;-3.168;2024-03-02T04:41:38;24;22;
73565;PMS5003;61846;52.970;-3.168;2024-03-02T04:44:03;29;22;
73565;PMS5003;61846;52.970;-3.168;2024-03-02T04:46:29;18;17;
73565;PMS5003;61846;52.970;-3.168;2024-03-02T04:48:54;25;22;
73565;PMS5003;61846;52.970;-3.168;2024-03-02T04:51:19;22;22;
73565;PMS5003;61846;52.970;-3.168;2024-03-02T04:53:45;20;17;
73565;PMS5003;61846;52.970;-3.168;2024-03-02T04:56:11;20;20;
73565;PMS5003;61846;52.970;-3.168;2024-03-02T04:58:36;17;14;
73565;PMS5003;61846;52.970;-3.168;2024-03-02T05:01:01;17;17;
73565;PMS5003;61846;52.970;-3.168;2024-03-02T05:03:27;26;17;
73565;PMS5003;61846;52.970;-3.168;2024-03-02T05:05:52;15;15;
73565;PMS5003;61846;52.970;-3.168;2024-03-02T05:08:18;26;18;
73565;PMS5003;61846;52.970;-3.168;2024-03-02T05:10:44;19;17;
73565;PMS5003;61846;52.970;-3.168;2024-03-02T05:13:09;18;18;
73565;PMS5003;61846;52.970;-3.168;2024-03-02T05:15:35;30;22;
73565;PMS5003;61846;52.970;-3.168;2024-03-02T05:17:59;19;18;
73565;PMS5003;61846;52.970;-3.168;2024-03-02T05:20:25;15;15;
73565;PMS5003;61846;52.970;-3.168;2024-03-02T05:22:51;20;19;
73565;PMS5003;61846;52.970;-3.168;2024-03-02T05:25:16;29;21;
73565;PMS5003;61846;52.970;-3.168;2024-03-02T05:27:42;21;18;
73565;PMS5003;61846;52.970;-3.168;2024-03-02T05:30:07;19;19;
73565;PMS5003;61846;52.970;-3.168;2024-03-02T05:32:32;26;17;
73565;PMS5003;61846;52.970;-3.168;2024-03-02T05:34:57;20;16;
73565;PMS5003;61846;52.970;-3.168;2024-03-02T05:37:22;26;21;
73565;PMS5003;61846;52.970;-3.168;2024-03-02T05:39:48;18;17;
73565;PMS5003;61846;52.970;-3.168;2024-03-02T05:42:13;20;14;
73565;PMS5003;61846;52.970;-3.168;2024-03-02T05:44:38;18;15;
73565;PMS5003;61846;52.970;-3.168;2024-03-02T05:47:04;25;18;
73565;PMS5003;61846;52.970;-3.168;2024-03-02T05:49:29;20;15;
73565;PMS5003;61846;52.970;-3.168;2024-03-02T05:51:54;25;20;
73565;PMS5003;61846;52.970;-3.168;2024-03-02T05:54:20;25;20;
73565;PMS5003;61846;52.970;-3.168;2024-03-02T05:56:46;20;18;
73565;PMS5003;61846;52.970;-3.168;2024-03-02T05:59:11;20;18;
73565;PMS5003;61846;52.970;-3.168;2024-03-02T06:01:36;24;17;
73565;PMS5003;61846;52.970;-3.168;2024-03-02T06:04:01;18;14;
73565;PMS5003;61846;52.970;-3.168;2024-03-02T06:06:27;19;14;
73565;PMS5003;61846;52.970;-3.168;2024-03-02T06:08:53;20;14;
73565;PMS5003;61846;52.970;-3.168;2024-03-02T06:11:19;14;14;
73565;PMS5003;61846;52.970;-3.168;2024-03-02T06:13:44;21;13;
73565;PMS5003;61846;52.970;-3.168;2024-03-02T06:16:10;13;12;
73565;PMS5003;61846;52.970;-3.168;2024-03-02T06:18:35;16;13;
73565;PMS5003;61846;52.970;-3.168;2024-03-02T06:21:01;19;17;
73565;PMS5003;61846;52.970;-3.168;2024-03-02T06:23:26;26;24;
73565;PMS5003;61846;52.970;-3.168;2024-03-02T06:25:52;27;23;
73565;PMS5003;61846;52.970;-3.168;2024-03-02T06:28:17;32;22;
73565;PMS5003;61846;52.970;-3.168;2024-03-02T06:30:43;20;20;
73565;PMS5003;61846;52.970;-3.168;2024-03-02T06:33:08;24;21;
73565;PMS5003;61846;52.970;-3.168;2024-03-02T06:35:34;32;24;
73565;PMS5003;61846;52.970;-3.168;2024-03-02T06:37:59;24;22;
73565;PMS5003;61846;52.970;-3.168;2024-03-02T06:40:25;27;23;
73565;PMS5003;61846;52.970;-3.168;2024-03-02T06:42:50;23;17;
73565;PMS5003;61846;52.970;-3.168;2024-03-02T06:45:15;32;27;
73565;PMS5003;61846;52.970;-3.168;2024-03-02T06:47:41;25;25;
73565;PMS5003;61846;52.970;-3.168;2024-03-02T06:50:06;34;25;
73565;PMS5003;61846;52.970;-3.168;2024-03-02T06:52:31;34;27;
73565;PMS5003;61846;52.970;-3.168;2024-03-02T06:54:57;28;22;
73565;PMS5003;61846;52.970;-3.168;2024-03-02T06:57:22;32;24;
73565;PMS5003;61846;52.970;-3.168;2024-03-02T06:59:48;26;22;
73565;PMS5003;61846;52.970;-3.168;2024-03-02T07:02:13;26;18;
73565;PMS5003;61846;52.970;-3.168;2024-03-02T07:04:38;24;22;
73565;PMS5003;61846;52.970;-3.168;2024-03-02T07:07:03;23;21;
73565;PMS5003;61846;52.970;-3.168;2024-03-02T07:09:29;30;23;
73565;PMS5003;61846;52.970;-3.168;2024-03-02T07:11:55;36;27;
73565;PMS5003;61846;52.970;-3.168;2024-03-02T07:14:20;25;22;
73565;PMS5003;61846;52.970;-3.168;2024-03-02T07:16:46;26;24;
73565;PMS5003;61846;52.970;-3.168;2024-03-02T07:19:11;30;22;
73565;PMS5003;61846;52.970;-3.168;2024-03-02T07:21:36;31;26;
73565;PMS5003;61846;52.970;-3.168;2024-03-02T07:24:02;32;27;
73565;PMS5003;61846;52.970;-3.168;2024-03-02T07:26:27;78;70;
73565;PMS5003;61846;52.970;-3.168;2024-03-02T07:28:53;40;35;
73565;PMS5003;61846;52.970;-3.168;2024-03-02T07:31:19;41;35;
73565;PMS5003;61846;52.970;-3.168;2024-03-02T07:33:44;39;30;
73565;PMS5003;61846;52.970;-3.168;2024-03-02T07:36:10;44;34;
73565;PMS5003;61846;52.970;-3.168;2024-03-02T07:38:35;34;33;
73565;PMS5003;61846;52.970;-3.168;2024-03-02T07:41:01;39;33;
73565;PMS5003;61846;52.970;-3.168;2024-03-02T07:43:27;30;28;
73565;PMS5003;61846;52.970;-3.168;2024-03-02T07:45:52;35;34;
73565;PMS5003;61846;52.970;-3.168;2024-03-02T07:48:17;39;30;
73565;PMS5003;61846;52.970;-3.168;2024-03-02T07:50:42;31;28;
73565;PMS5003;61846;52.970;-3.168;2024-03-02T07:53:08;32;27;
73565;PMS5003;61846;52.970;-3.168;2024-03-02T07:55:34;29;28;
73565;PMS5003;61846;52.970;-3.168;2024-03-02T07:58:00;42;32;
73565;PMS5003;61846;52.970;-3.168;2024-03-02T08:00:25;34;29;
73565;PMS5003;61846;52.970;-3.168;2024-03-02T08:02:50;42;36;
73565;PMS5003;61846;52.970;-3.168;2024-03-02T08:05:15;34;27;
73565;PMS5003;61846;52.970;-3.168;2024-03-02T08:07:40;31;21;
73565;PMS5003;61846;52.970;-3.168;2024-03-02T08:10:06;25;23;
73565;PMS5003;61846;52.970;-3.168;2024-03-02T08:12:31;28;25;
73565;PMS5003;61846;52.970;-3.168;2024-03-02T08:14:57;24;24;
73565;PMS5003;61846;52.970;-3.168;2024-03-02T08:17:22;24;24;
73565;PMS5003;61846;52.970;-3.168;2024-03-02T08:19:47;27;26;
73565;PMS5003;61846;52.970;-3.168;2024-03-02T08:22:13;36;28;
73565;PMS5003;61846;52.970;-3.168;2024-03-02T08:24:38;30;29;
73565;PMS5003;61846;52.970;-3.168;2024-03-02T08:27:04;32;27;
73565;PMS5003;61846;52.970;-3.168;2024-03-02T08:29:29;34;34;
73565;PMS5003;61846;52.970;-3.168;2024-03-02T08:31:54;32;25;
73565;PMS5003;61846;52.970;-3.168;2024-03-02T08:34:20;34;29;
73565;PMS5003;61846;52.970;-3.168;2024-03-02T08:36:45;34;27;
73565;PMS5003;61846;52.970;-3.168;2024-03-02T08:39:10;35;28;
73565;PMS5003;61846;52.970;-3.168;2024-03-02T08:41:36;35;29;
73565;PMS5003;61846;52.970;-3.168;2024-03-02T08:44:02;34;28;
73565;PMS5003;61846;52.970;-3.168;2024-03-02T08:46:27;34;26;
73565;PMS5003;61846;52.970;-3.168;2024-03-02T08:48:53;38;30;
73565;PMS5003;61846;52.970;-3.168;2024-03-02T08:51:18;30;28;
73565;PMS5003;61846;52.970;-3.168;2024-03-02T08:53:44;33;25;
73565;PMS5003;61846;52.970;-3.168;2024-03-02T08:56:08;33;27;
73565;PMS5003;61846;52.970;-3.168;2024-03-02T08:58:34;38;33;
73565;PMS5003;61846;52.970;-3.168;2024-03-02T09:00:59;41;32;
73565;PMS5003;61846;52.970;-3.168;2024-03-02T09:03:24;35;26;
73565;PMS5003;61846;52.970;-3.168;2024-03-02T09:05:49;31;28;
73565;PMS5003;61846;52.970;-3.168;2024-03-02T09:08:15;41;32;
73565;PMS5003;61846;52.970;-3.168;2024-03-02T09:10:40;37;34;
73565;PMS5003;61846;52.970;-3.168;2024-03-02T09:13:06;38;32;
73565;PMS5003;61846;52.970;-3.168;2024-03-02T09:15:31;40;27;
73565;PMS5003;61846;52.970;-3.168;2024-03-02T09:17:56;34;29;
73565;PMS5003;61846;52.970;-3.168;2024-03-02T09:20:22;38;31;
73565;PMS5003;61846;52.970;-3.168;2024-03-02T09:22:47;43;32;
73565;PMS5003;61846;52.970;-3.168;2024-03-02T09:25:13;40;32;
73565;PMS5003;61846;52.970;-3.168;2024-03-02T09:27:38;38;30;
73565;PMS5003;61846;52.970;-3.168;2024-03-02T09:30:04;33;27;
73565;PMS5003;61846;52.970;-3.168;2024-03-02T09:32:29;36;30;
73565;PMS5003;61846;52.970;-3.168;2024-03-02T09:34:54;41;33;
73565;PMS5003;61846;52.970;-3.168;2024-03-02T09:37:20;43;37;
73565;PMS5003;61846;52.970;-3.168;2024-03-02T09:39:46;39;32;
73565;PMS5003;61846;52.970;-3.168;2024-03-02T09:42:11;34;31;
73565;PMS5003;61846;52.970;-3.168;2024-03-02T09:44:37;41;33;
73565;PMS5003;61846;52.970;-3.168;2024-03-02T09:47:03;38;28;
73565;PMS5003;61846;52.970;-3.168;2024-03-02T09:49:28;36;29;
73565;PMS5003;61846;52.970;-3.168;2024-03-02T09:51:54;36;31;
73565;PMS5003;61846;52.970;-3.168;2024-03-02T09:54:19;32;27;
73565;PMS5003;61846;52.970;-3.168;2024-03-02T09:56:44;39;27;
73565;PMS5003;61846;52.970;-3.168;2024-03-02T09:59:09;35;31;
73565;PMS5003;61846;52.970;-3.168;2024-03-02T10:01:34;42;34;
73565;PMS5003;61846;52.970;-3.168;2024-03-02T10:04:00;38;33;
73565;PMS5003;61846;52.970;-3.168;2024-03-02T10:06:26;38;33;
73565;PMS5003;61846;52.970;-3.168;2024-03-02T10:08:51;39;35;
73565;PMS5003;61846;52.970;-3.168;2024-03-02T10:11:25;41;34;
73565;PMS5003;61846;52.970;-3.168;2024-03-02T10:13:42;39;35;
73565;PMS5003;61846;52.970;-3.168;2024-03-02T10:16:11;39;36;
73565;PMS5003;61846;52.970;-3.168;2024-03-02T10:18:33;52;45;
73565;PMS5003;61846;52.970;-3.168;2024-03-02T10:23:24;67;53;
73565;PMS5003;61846;52.970;-3.168;2024-03-02T10:25:50;79;68;
73565;PMS5003;61846;52.970;-3.168;2024-03-02T10:28:15;69;64;
73565;PMS5003;61846;52.970;-3.168;2024-03-02T10:30:41;58;51;
73565;PMS5003;61846;52.970;-3.168;2024-03-02T10:33:07;36;34;
73565;PMS5003;61846;52.970;-3.168;2024-03-02T10:35:32;50;42;
73565;PMS5003;61846;52.970;-3.168;2024-03-02T10:37:58;42;35;
73565;PMS5003;61846;52.970;-3.168;2024-03-02T10:40:23;56;48;
73565;PMS5003;61846;52.970;-3.168;2024-03-02T10:42:49;52;42;
73565;PMS5003;61846;52.970;-3.168;2024-03-02T10:45:15;38;30;
73565;PMS5003;61846;52.970;-3.168;2024-03-02T10:47:40;34;25;
73565;PMS5003;61846;52.970;-3.168;2024-03-02T10:50:05;39;31;
73565;PMS5003;61846;52.970;-3.168;2024-03-02T10:52:30;36;30;
73565;PMS5003;61846;52.970;-3.168;2024-03-02T10:54:55;28;24;
73565;PMS5003;61846;52.970;-3.168;2024-03-02T10:57:22;29;22;
73565;PMS5003;61846;52.970;-3.168;2024-03-02T10:59:48;27;20;
73565;PMS5003;61846;52.970;-3.168;2024-03-02T11:02:11;21;21;
73565;PMS5003;61846;52.970;-3.168;2024-03-02T11:04:37;21;16;
73565;PMS5003;61846;52.970;-3.168;2024-03-02T11:07:04;26;21;
73565;PMS5003;61846;52.970;-3.168;2024-03-02T11:09:28;35;28;
73565;PMS5003;61846;52.970;-3.168;2024-03-02T11:11:55;18;18;
73565;PMS5003;61846;52.970;-3.168;2024-03-02T11:14:19;24;23;
73565;PMS5003;61846;52.970;-3.168;2024-03-02T11:16:44;29;24;
73565;PMS5003;61846;52.970;-3.168;2024-03-02T11:19:10;22;20;
73565;PMS5003;61846;52.970;-3.168;2024-03-02T11:21:35;27;22;
73565;PMS5003;61846;52.970;-3.168;2024-03-02T11:24:00;26;18;
73565;PMS5003;61846;52.970;-3.168;2024-03-02T11:26:26;21;19;
73565;PMS5003;61846;52.970;-3.168;2024-03-02T11:28:51;22;13;
73565;PMS5003;61846;52.970;-3.168;2024-03-02T11:31:17;18;16;
73565;PMS5003;61846;52.970;-3.168;2024-03-02T11:33:42;14;13;
73565;PMS5003;61846;52.970;-3.168;2024-03-02T11:36:07;19;18;
73565;PMS5003;61846;52.970;-3.168;2024-03-02T11:38:33;20;17;
73565;PMS5003;61846;52.970;-3.168;2024-03-02T11:40:59;17;17;
73565;PMS5003;61846;52.970;-3.168;2024-03-02T11:43:24;19;19;
73565;PMS5003;61846;52.970;-3.168;2024-03-02T11:45:49;14;14;
73565;PMS5003;61846;52.970;-3.168;2024-03-02T11:48:14;17;17;
73565;PMS5003;61846;52.970;-3.168;2024-03-02T11:50:40;12;12;
73565;PMS5003;61846;52.970;-3.168;2024-03-02T11:53:05;12;11;
73565;PMS5003;61846;52.970;-3.168;2024-03-02T11:55:30;16;14;
73565;PMS5003;61846;52.970;-3.168;2024-03-02T11:57:56;15;14;
73565;PMS5003;61846;52.970;-3.168;2024-03-02T12:00:21;18;18;
73565;PMS5003;61846;52.970;-3.168;2024-03-02T12:02:47;14;14;
73565;PMS5003;61846;52.970;-3.168;2024-03-02T12:05:12;15;14;
73565;PMS5003;61846;52.970;-3.168;2024-03-02T12:07:37;16;15;
73565;PMS5003;61846;52.970;-3.168;2024-03-02T12:10:05;17;15;
73565;PMS5003;61846;52.970;-3.168;2024-03-02T12:12:28;15;13;
73565;PMS5003;61846;52.970;-3.168;2024-03-02T12:14:54;21;14;
73565;PMS5003;61846;52.970;-3.168;2024-03-02T12:17:19;20;20;
73565;PMS5003;61846;52.970;-3.168;2024-03-02T12:19:44;15;15;
73565;PMS5003;61846;52.970;-3.168;2024-03-02T12:22:10;17;16;
73565;PMS5003;61846;52.970;-3.168;2024-03-02T12:24:35;22;14;
73565;PMS5003;61846;52.970;-3.168;2024-03-02T12:27:00;20;14;
73565;PMS5003;61846;52.970;-3.168;2024-03-02T12:29:26;12;11;
73565;PMS5003;61846;52.970;-3.168;2024-03-02T12:31:52;18;18;
73565;PMS5003;61846;52.970;-3.168;2024-03-02T12:34:17;18;18;
73565;PMS5003;61846;52.970;-3.168;2024-03-02T12:36:43;19;17;
73565;PMS5003;61846;52.970;-3.168;2024-03-02T12:39:08;17;17;
73565;PMS5003;61846;52.970;-3.168;2024-03-02T12:41:35;17;17;
73565;PMS5003;61846;52.970;-3.168;2024-03-02T12:43:59;26;18;
73565;PMS5003;61846;52.970;-3.168;2024-03-02T12:46:25;41;31;
73565;PMS5003;61846;52.970;-3.168;2024-03-02T12:48:51;28;25;
73565;PMS5003;61846;52.970;-3.168;2024-03-02T12:51:16;22;15;
73565;PMS5003;61846;52.970;-3.168;2024-03-02T12:53:42;14;14;
73565;PMS5003;61846;52.970;-3.168;2024-03-02T12:56:07;16;16;
73565;PMS5003;61846;52.970;-3.168;2024-03-02T12:58:38;14;13;
73565;PMS5003;61846;52.970;-3.168;2024-03-02T13:01:06;20;14;
73565;PMS5003;61846;52.970;-3.168;2024-03-02T13:03:24;13;13;
73565;PMS5003;61846;52.970;-3.168;2024-03-02T13:05:49;14;14;
73565;PMS5003;61846;52.970;-3.168;2024-03-02T13:08:14;25;14;
73565;PMS5003;61846;52.970;-3.168;2024-03-02T13:10:40;15;13;
73565;PMS5003;61846;52.970;-3.168;2024-03-02T13:13:05;11;11;
73565;PMS5003;61846;52.970;-3.168;2024-03-02T13:15:32;16;16;
73565;PMS5003;61846;52.970;-3.168;2024-03-02T13:17:58;14;12;
73565;PMS5003;61846;52.970;-3.168;2024-03-02T13:20:22;26;19;
73565;PMS5003;61846;52.970;-3.168;2024-03-02T13:22:48;15;13;
73565;PMS5003;61846;52.970;-3.168;2024-03-02T13:25:13;15;15;
73565;PMS5003;61846;52.970;-3.168;2024-03-02T13:27:39;11;9;
73565;PMS5003;61846;52.970;-3.168;2024-03-02T13:30:05;8;8;
73565;PMS5003;61846;52.970;-3.168;2024-03-02T13:32:30;6;6;
73565;PMS5003;61846;52.970;-3.168;2024-03-02T13:34:56;9;9;
73565;PMS5003;61846;52.970;-3.168;2024-03-02T13:37:22;8;8;
73565;PMS5003;61846;52.970;-3.168;2024-03-02T13:39:48;10;10;
73565;PMS5003;61846;52.970;-3.168;2024-03-02T13:42:13;11;9;
73565;PMS5003;61846;52.970;-3.168;2024-03-02T13:44:39;8;7;
73565;PMS5003;61846;52.970;-3.168;2024-03-02T13:47:05;6;6;
73565;PMS5003;61846;52.970;-3.168;2024-03-02T13:49:31;6;6;
73565;PMS5003;61846;52.970;-3.168;2024-03-02T13:51:56;6;6;
73565;PMS5003;61846;52.970;-3.168;2024-03-02T13:54:21;3;3;
73565;PMS5003;61846;52.970;-3.168;2024-03-02T13:56:47;5;5;
73565;PMS5003;61846;52.970;-3.168;2024-03-02T13:59:13;6;6;
73565;PMS5003;61846;52.970;-3.168;2024-03-02T14:01:39;4;4;
73565;PMS5003;61846;52.970;-3.168;2024-03-02T14:04:05;4;4;
73565;PMS5003;61846;52.970;-3.168;2024-03-02T14:06:30;4;3;
73565;PMS5003;61846;52.970;-3.168;2024-03-02T14:08:56;5;4;
73565;PMS5003;61846;52.970;-3.168;2024-03-02T14:11:22;6;5;
73565;PMS5003;61846;52.970;-3.168;2024-03-02T14:13:48;8;6;
73565;PMS5003;61846;52.970;-3.168;2024-03-02T14:16:13;10;10;
73565;PMS5003;61846;52.970;-3.168;2024-03-02T14:18:39;7;7;
73565;PMS5003;61846;52.970;-3.168;2024-03-02T14:21:05;36;31;
73565;PMS5003;61846;52.970;-3.168;2024-03-02T14:23:30;46;42;
73565;PMS5003;61846;52.970;-3.168;2024-03-02T14:25:56;23;23;
73565;PMS5003;61846;52.970;-3.168;2024-03-02T14:28:21;16;16;
73565;PMS5003;61846;52.970;-3.168;2024-03-02T14:30:47;8;8;
73565;PMS5003;61846;52.970;-3.168;2024-03-02T14:33:14;11;11;
73565;PMS5003;61846;52.970;-3.168;2024-03-02T14:35:38;6;6;
73565;PMS5003;61846;52.970;-3.168;2024-03-02T14:38:04;7;7;
73565;PMS5003;61846;52.970;-3.168;2024-03-02T14:40:29;4;4;
73565;PMS5003;61846;52.970;-3.168;2024-03-02T14:42:55;4;4;
73565;PMS5003;61846;52.970;-3.168;2024-03-02T14:45:21;3;3;
73565;PMS5003;61846;52.970;-3.168;2024-03-02T14:47:47;6;6;
73565;PMS5003;61846;52.970;-3.168;2024-03-02T14:50:12;7;6;
73565;PMS5003;61846;52.970;-3.168;2024-03-02T14:52:38;10;9;
73565;PMS5003;61846;52.970;-3.168;2024-03-02T14:55:04;32;25;
73565;PMS5003;61846;52.970;-3.168;2024-03-02T14:57:29;25;21;
73565;PMS5003;61846;52.970;-3.168;2024-03-02T14:59:55;20;17;
73565;PMS5003;61846;52.970;-3.168;2024-03-02T15:02:20;18;16;
73565;PMS5003;61846;52.970;-3.168;2024-03-02T15:04:46;20;15;
73565;PMS5003;61846;52.970;-3.168;2024-03-02T15:07:11;13;13;
73565;PMS5003;61846;52.970;-3.168;2024-03-02T15:09:36;39;31;
73565;PMS5003;61846;52.970;-3.168;2024-03-02T15:12:02;18;18;
73565;PMS5003;61846;52.970;-3.168;2024-03-02T15:14:27;17;17;
73565;PMS5003;61846;52.970;-3.168;2024-03-02T15:16:53;10;9;
73565;PMS5003;61846;52.970;-3.168;2024-03-02T15:19:19;6;6;
73565;PMS5003;61846;52.970;-3.168;2024-03-02T15:21:44;11;10;
73565;PMS5003;61846;52.970;-3.168;2024-03-02T15:24:10;13;9;
73565;PMS5003;61846;52.970;-3.168;2024-03-02T15:26:35;6;5;
73565;PMS5003;61846;52.970;-3.168;2024-03-02T15:29:01;17;15;
73565;PMS5003;61846;52.970;-3.168;2024-03-02T15:31:26;27;22;
73565;PMS5003;61846;52.970;-3.168;2024-03-02T15:33:52;61;46;
73565;PMS5003;61846;52.970;-3.168;2024-03-02T15:36:17;167;143;
73565;PMS5003;61846;52.970;-3.168;2024-03-02T15:38:43;84;77;
73565;PMS5003;61846;52.970;-3.168;2024-03-02T15:41:08;28;24;
73565;PMS5003;61846;52.970;-3.168;2024-03-02T15:43:33;23;16;
73565;PMS5003;61846;52.970;-3.168;2024-03-02T15:45:59;10;9;
73565;PMS5003;61846;52.970;-3.168;2024-03-02T15:48:24;8;8;
73565;PMS5003;61846;52.970;-3.168;2024-03-02T15:50:50;9;9;
73565;PMS5003;61846;52.970;-3.168;2024-03-02T15:53:16;11;7;